sensor_id;sensor_type;location;lat;lon;timestamp;P1;durP1;ratioP1;P2;durP2;ratioP2
297;SDS011;133;49.626;9.680;2022-12-29T00:02:07;4.10;;;2.80;;
297;SDS011;133;49.626;9.680;2022-12-29T00:04:32;2.90;;;2.70;;
297;SDS011;133;49.626;9.680;2022-12-29T00:06:58;4.33;;;3.20;;
297;SDS011;133;49.626;9.680;2022-12-29T00:09:25;3.73;;;3.53;;
297;SDS011;133;49.626;9.680;2022-12-29T00:11:51;3.03;;;2.83;;
297;SDS011;133;49.626;9.680;2022-12-29T00:14:17;3.23;;;3.07;;
297;SDS011;133;49.626;9.680;2022-12-29T00:17:02;3.00;;;2.80;;
297;SDS011;133;49.626;9.680;2022-12-29T00:19:28;3.30;;;3.10;;
297;SDS011;133;49.626;9.680;2022-12-29T00:22:12;3.20;;;3.00;;
297;SDS011;133;49.626;9.680;2022-12-29T00:24:58;3.10;;;2.83;;
297;SDS011;133;49.626;9.680;2022-12-29T00:27:27;3.27;;;2.80;;
297;SDS011;133;49.626;9.680;2022-12-29T00:30:13;3.63;;;3.10;;
297;SDS011;133;49.626;9.680;2022-12-29T00:33:12;2.97;;;2.77;;
297;SDS011;133;49.626;9.680;2022-12-29T00:36:00;3.00;;;2.80;;
297;SDS011;133;49.626;9.680;2022-12-29T00:38:37;4.50;;;3.00;;
297;SDS011;133;49.626;9.680;2022-12-29T00:41:23;3.20;;;2.90;;
297;SDS011;133;49.626;9.680;2022-12-29T00:44:09;3.73;;;3.17;;
297;SDS011;133;49.626;9.680;2022-12-29T00:46:37;4.20;;;3.40;;
297;SDS011;133;49.626;9.680;2022-12-29T00:49:04;3.83;;;2.97;;
297;SDS011;133;49.626;9.680;2022-12-29T00:51:49;3.03;;;2.83;;
297;SDS011;133;49.626;9.680;2022-12-29T00:54:15;3.13;;;2.93;;
297;SDS011;133;49.626;9.680;2022-12-29T00:56:42;3.07;;;2.87;;
297;SDS011;133;49.626;9.680;2022-12-29T00:59:08;3.97;;;3.07;;
297;SDS011;133;49.626;9.680;2022-12-29T01:01:35;4.40;;;2.97;;
297;SDS011;133;49.626;9.680;2022-12-29T01:04:02;3.27;;;3.07;;
297;SDS011;133;49.626;9.680;2022-12-29T01:06:29;4.10;;;2.97;;
297;SDS011;133;49.626;9.680;2022-12-29T01:08:54;3.50;;;3.17;;
297;SDS011;133;49.626;9.680;2022-12-29T01:11:39;2.93;;;2.57;;
297;SDS011;133;49.626;9.680;2022-12-29T01:14:05;3.40;;;2.83;;
297;SDS011;133;49.626;9.680;2022-12-29T01:16:32;2.93;;;2.73;;
297;SDS011;133;49.626;9.680;2022-12-29T01:18:58;3.13;;;2.93;;
297;SDS011;133;49.626;9.680;2022-12-29T01:21:23;2.83;;;2.67;;
297;SDS011;133;49.626;9.680;2022-12-29T01:23:49;4.63;;;2.80;;
297;SDS011;133;49.626;9.680;2022-12-29T01:26:15;3.03;;;2.83;;
297;SDS011;133;49.626;9.680;2022-12-29T01:28:42;3.80;;;3.13;;
297;SDS011;133;49.626;9.680;2022-12-29T01:31:08;3.03;;;2.90;;
297;SDS011;133;49.626;9.680;2022-12-29T01:33:35;3.47;;;2.93;;
297;SDS011;133;49.626;9.680;2022-12-29T01:36:01;4.47;;;3.93;;
297;SDS011;133;49.626;9.680;2022-12-29T01:38:32;2.77;;;2.57;;
297;SDS011;133;49.626;9.680;2022-12-29T01:40:59;4.27;;;2.77;;
297;SDS011;133;49.626;9.680;2022-12-29T01:46:33;2.97;;;2.77;;
297;SDS011;133;49.626;9.680;2022-12-29T01:52:01;3.17;;;2.97;;
297;SDS011;133;49.626;9.680;2022-12-29T01:54:31;2.83;;;2.63;;
297;SDS011;133;49.626;9.680;2022-12-29T01:57:01;4.10;;;2.80;;
297;SDS011;133;49.626;9.680;2022-12-29T01:59:33;9.37;;;2.90;;
297;SDS011;133;49.626;9.680;2022-12-29T02:02:02;3.40;;;3.03;;
297;SDS011;133;49.626;9.680;2022-12-29T02:04:29;3.83;;;3.43;;
297;SDS011;133;49.626;9.680;2022-12-29T02:07:01;4.17;;;2.97;;
297;SDS011;133;49.626;9.680;2022-12-29T02:09:30;3.60;;;3.40;;
297;SDS011;133;49.626;9.680;2022-12-29T02:11:56;4.20;;;3.07;;
297;SDS011;133;49.626;9.680;2022-12-29T02:14:23;3.13;;;2.93;;
297;SDS011;133;49.626;9.680;2022-12-29T02:17:05;3.97;;;3.23;;
297;SDS011;133;49.626;9.680;2022-12-29T02:25:29;3.50;;;3.30;;
297;SDS011;133;49.626;9.680;2022-12-29T02:28:27;3.37;;;3.17;;
297;SDS011;133;49.626;9.680;2022-12-29T02:31:18;4.73;;;3.13;;
297;SDS011;133;49.626;9.680;2022-12-29T02:39:32;3.60;;;3.33;;
297;SDS011;133;49.626;9.680;2022-12-29T02:45:04;5.73;;;3.80;;
297;SDS011;133;49.626;9.680;2022-12-29T02:48:03;3.43;;;3.23;;
297;SDS011;133;49.626;9.680;2022-12-29T02:50:43;4.23;;;3.10;;
297;SDS011;133;49.626;9.680;2022-12-29T02:53:18;5.03;;;3.03;;
297;SDS011;133;49.626;9.680;2022-12-29T02:56:05;4.80;;;3.77;;
297;SDS011;133;49.626;9.680;2022-12-29T02:58:31;3.33;;;3.10;;
297;SDS011;133;49.626;9.680;2022-12-29T03:01:11;7.77;;;3.53;;
297;SDS011;133;49.626;9.680;2022-12-29T03:09:26;3.53;;;3.33;;
297;SDS011;133;49.626;9.680;2022-12-29T03:12:07;3.60;;;3.23;;
297;SDS011;133;49.626;9.680;2022-12-29T03:20:24;5.50;;;3.37;;
297;SDS011;133;49.626;9.680;2022-12-29T03:22:58;7.33;;;4.03;;
297;SDS011;133;49.626;9.680;2022-12-29T03:25:30;3.50;;;3.07;;
297;SDS011;133;49.626;9.680;2022-12-29T03:27:59;3.57;;;3.00;;
297;SDS011;133;49.626;9.680;2022-12-29T03:30:34;3.30;;;3.00;;
297;SDS011;133;49.626;9.680;2022-12-29T03:33:02;3.73;;;2.90;;
297;SDS011;133;49.626;9.680;2022-12-29T03:35:33;3.83;;;3.07;;
297;SDS011;133;49.626;9.680;2022-12-29T03:40:34;4.00;;;3.20;;
297;SDS011;133;49.626;9.680;2022-12-29T03:43:02;7.90;;;3.33;;
297;SDS011;133;49.626;9.680;2022-12-29T03:45:29;3.53;;;3.23;;
297;SDS011;133;49.626;9.680;2022-12-29T03:47:55;3.90;;;2.70;;
297;SDS011;133;49.626;9.680;2022-12-29T03:50:20;3.50;;;3.30;;
297;SDS011;133;49.626;9.680;2022-12-29T03:53:02;6.20;;;3.20;;
297;SDS011;133;49.626;9.680;2022-12-29T03:55:28;3.67;;;3.30;;
297;SDS011;133;49.626;9.680;2022-12-29T03:57:54;5.93;;;3.20;;
297;SDS011;133;49.626;9.680;2022-12-29T04:00:20;3.27;;;3.10;;
297;SDS011;133;49.626;9.680;2022-12-29T04:02:51;5.30;;;3.37;;
297;SDS011;133;49.626;9.680;2022-12-29T04:05:17;6.13;;;2.87;;
297;SDS011;133;49.626;9.680;2022-12-29T04:07:42;4.27;;;2.93;;
297;SDS011;133;49.626;9.680;2022-12-29T04:10:08;3.20;;;3.00;;
297;SDS011;133;49.626;9.680;2022-12-29T04:12:34;3.40;;;3.20;;
297;SDS011;133;49.626;9.680;2022-12-29T04:15:00;5.23;;;2.90;;
297;SDS011;133;49.626;9.680;2022-12-29T04:17:25;3.50;;;3.30;;
297;SDS011;133;49.626;9.680;2022-12-29T04:19:51;2.97;;;2.80;;
297;SDS011;133;49.626;9.680;2022-12-29T04:22:37;3.57;;;2.80;;
297;SDS011;133;49.626;9.680;2022-12-29T04:25:02;2.80;;;2.60;;
297;SDS011;133;49.626;9.680;2022-12-29T04:27:28;5.90;;;2.90;;
297;SDS011;133;49.626;9.680;2022-12-29T04:29:53;4.50;;;3.00;;
297;SDS011;133;49.626;9.680;2022-12-29T04:32:19;4.47;;;2.73;;
297;SDS011;133;49.626;9.680;2022-12-29T04:34:45;3.10;;;2.90;;
297;SDS011;133;49.626;9.680;2022-12-29T04:37:10;5.00;;;2.80;;
297;SDS011;133;49.626;9.680;2022-12-29T04:39:36;4.17;;;2.97;;
297;SDS011;133;49.626;9.680;2022-12-29T04:42:01;6.00;;;3.57;;
297;SDS011;133;49.626;9.680;2022-12-29T04:44:27;5.40;;;2.70;;
297;SDS011;133;49.626;9.680;2022-12-29T04:46:52;3.20;;;3.00;;
297;SDS011;133;49.626;9.680;2022-12-29T04:49:18;4.60;;;2.97;;
297;SDS011;133;49.626;9.680;2022-12-29T04:51:44;2.93;;;2.73;;
297;SDS011;133;49.626;9.680;2022-12-29T04:54:09;4.40;;;2.63;;
297;SDS011;133;49.626;9.680;2022-12-29T04:56:37;2.97;;;2.80;;
297;SDS011;133;49.626;9.680;2022-12-29T04:59:03;3.70;;;3.00;;
297;SDS011;133;49.626;9.680;2022-12-29T05:01:29;4.40;;;2.67;;
297;SDS011;133;49.626;9.680;2022-12-29T05:03:54;5.90;;;2.70;;
297;SDS011;133;49.626;9.680;2022-12-29T05:06:20;2.83;;;2.63;;
297;SDS011;133;49.626;9.680;2022-12-29T05:08:46;4.63;;;2.80;;
297;SDS011;133;49.626;9.680;2022-12-29T05:11:11;3.40;;;2.80;;
297;SDS011;133;49.626;9.680;2022-12-29T05:13:37;2.90;;;2.27;;
297;SDS011;133;49.626;9.680;2022-12-29T05:16:02;4.70;;;2.70;;
297;SDS011;133;49.626;9.680;2022-12-29T05:18:28;2.80;;;2.50;;
297;SDS011;133;49.626;9.680;2022-12-29T05:20:54;4.37;;;2.87;;
297;SDS011;133;49.626;9.680;2022-12-29T05:23:19;3.77;;;2.57;;
297;SDS011;133;49.626;9.680;2022-12-29T05:25:45;3.00;;;2.70;;
297;SDS011;133;49.626;9.680;2022-12-29T05:28:10;4.33;;;2.50;;
297;SDS011;133;49.626;9.680;2022-12-29T05:30:36;2.97;;;2.67;;
297;SDS011;133;49.626;9.680;2022-12-29T05:33:02;3.30;;;2.73;;
297;SDS011;133;49.626;9.680;2022-12-29T05:35:27;2.43;;;2.23;;
297;SDS011;133;49.626;9.680;2022-12-29T05:37:53;6.07;;;2.90;;
297;SDS011;133;49.626;9.680;2022-12-29T05:40:18;2.67;;;2.50;;
297;SDS011;133;49.626;9.680;2022-12-29T05:42:44;8.77;;;2.50;;
297;SDS011;133;49.626;9.680;2022-12-29T05:45:10;3.23;;;2.23;;
297;SDS011;133;49.626;9.680;2022-12-29T05:47:35;3.60;;;2.47;;
297;SDS011;133;49.626;9.680;2022-12-29T05:50:01;3.37;;;2.50;;
297;SDS011;133;49.626;9.680;2022-12-29T05:52:27;2.60;;;2.40;;
297;SDS011;133;49.626;9.680;2022-12-29T05:54:52;3.43;;;2.40;;
297;SDS011;133;49.626;9.680;2022-12-29T05:57:18;3.30;;;2.43;;
297;SDS011;133;49.626;9.680;2022-12-29T05:59:44;2.70;;;2.50;;
297;SDS011;133;49.626;9.680;2022-12-29T06:02:09;2.57;;;2.37;;
297;SDS011;133;49.626;9.680;2022-12-29T06:04:35;3.57;;;2.40;;
297;SDS011;133;49.626;9.680;2022-12-29T06:07:00;2.87;;;2.10;;
297;SDS011;133;49.626;9.680;2022-12-29T06:09:26;5.50;;;2.60;;
297;SDS011;133;49.626;9.680;2022-12-29T06:11:52;2.60;;;2.40;;
297;SDS011;133;49.626;9.680;2022-12-29T06:14:17;3.83;;;2.30;;
297;SDS011;133;49.626;9.680;2022-12-29T06:16:43;2.73;;;2.53;;
297;SDS011;133;49.626;9.680;2022-12-29T06:19:08;2.83;;;2.60;;
297;SDS011;133;49.626;9.680;2022-12-29T06:21:34;2.83;;;2.10;;
297;SDS011;133;49.626;9.680;2022-12-29T06:24:01;3.30;;;2.33;;
297;SDS011;133;49.626;9.680;2022-12-29T06:26:27;3.40;;;2.50;;
297;SDS011;133;49.626;9.680;2022-12-29T06:28:52;7.13;;;2.40;;
297;SDS011;133;49.626;9.680;2022-12-29T06:31:18;2.73;;;2.03;;
297;SDS011;133;49.626;9.680;2022-12-29T06:33:43;4.97;;;2.43;;
297;SDS011;133;49.626;9.680;2022-12-29T06:36:09;2.97;;;2.40;;
297;SDS011;133;49.626;9.680;2022-12-29T06:38:35;2.43;;;2.23;;
297;SDS011;133;49.626;9.680;2022-12-29T06:41:00;2.50;;;2.30;;
297;SDS011;133;49.626;9.680;2022-12-29T06:43:26;2.83;;;2.67;;
297;SDS011;133;49.626;9.680;2022-12-29T06:45:52;3.50;;;2.40;;
297;SDS011;133;49.626;9.680;2022-12-29T06:48:17;2.60;;;2.40;;
297;SDS011;133;49.626;9.680;2022-12-29T06:50:43;3.43;;;2.40;;
297;SDS011;133;49.626;9.680;2022-12-29T06:53:08;5.17;;;2.53;;
297;SDS011;133;49.626;9.680;2022-12-29T06:55:34;2.50;;;2.30;;
297;SDS011;133;49.626;9.680;2022-12-29T06:57:59;3.00;;;2.40;;
297;SDS011;133;49.626;9.680;2022-12-29T07:00:26;2.40;;;2.20;;
297;SDS011;133;49.626;9.680;2022-12-29T07:02:51;2.20;;;2.07;;
297;SDS011;133;49.626;9.680;2022-12-29T07:05:19;2.40;;;2.03;;
297;SDS011;133;49.626;9.680;2022-12-29T07:07:44;3.33;;;2.90;;
297;SDS011;133;49.626;9.680;2022-12-29T07:10:10;2.50;;;2.30;;
297;SDS011;133;49.626;9.680;2022-12-29T07:12:36;2.50;;;2.37;;
297;SDS011;133;49.626;9.680;2022-12-29T07:15:01;2.47;;;2.27;;
297;SDS011;133;49.626;9.680;2022-12-29T07:17:27;2.30;;;2.10;;
297;SDS011;133;49.626;9.680;2022-12-29T07:19:53;4.40;;;2.40;;
297;SDS011;133;49.626;9.680;2022-12-29T07:22:18;3.57;;;2.30;;
297;SDS011;133;49.626;9.680;2022-12-29T07:24:44;4.07;;;2.87;;
297;SDS011;133;49.626;9.680;2022-12-29T07:27:09;2.63;;;2.43;;
297;SDS011;133;49.626;9.680;2022-12-29T07:29:38;3.03;;;2.20;;
297;SDS011;133;49.626;9.680;2022-12-29T07:32:04;2.97;;;2.40;;
297;SDS011;133;49.626;9.680;2022-12-29T07:34:30;3.60;;;2.90;;
297;SDS011;133;49.626;9.680;2022-12-29T07:36:55;3.57;;;3.10;;
297;SDS011;133;49.626;9.680;2022-12-29T07:39:21;5.47;;;3.10;;
297;SDS011;133;49.626;9.680;2022-12-29T07:41:46;3.17;;;2.80;;
297;SDS011;133;49.626;9.680;2022-12-29T07:44:12;2.67;;;2.50;;
297;SDS011;133;49.626;9.680;2022-12-29T07:46:38;3.77;;;2.50;;
297;SDS011;133;49.626;9.680;2022-12-29T07:49:03;4.93;;;2.60;;
297;SDS011;133;49.626;9.680;2022-12-29T07:51:29;4.83;;;3.03;;
297;SDS011;133;49.626;9.680;2022-12-29T07:53:54;4.93;;;2.20;;
297;SDS011;133;49.626;9.680;2022-12-29T07:56:20;2.77;;;2.43;;
297;SDS011;133;49.626;9.680;2022-12-29T07:58:45;3.03;;;2.57;;
297;SDS011;133;49.626;9.680;2022-12-29T08:01:11;4.10;;;2.43;;
297;SDS011;133;49.626;9.680;2022-12-29T08:03:36;3.40;;;2.30;;
297;SDS011;133;49.626;9.680;2022-12-29T08:06:03;3.40;;;2.20;;
297;SDS011;133;49.626;9.680;2022-12-29T08:08:28;3.03;;;2.13;;
297;SDS011;133;49.626;9.680;2022-12-29T08:10:54;2.60;;;2.40;;
297;SDS011;133;49.626;9.680;2022-12-29T08:13:20;3.20;;;2.40;;
297;SDS011;133;49.626;9.680;2022-12-29T08:15:45;3.67;;;2.47;;
297;SDS011;133;49.626;9.680;2022-12-29T08:18:11;2.40;;;2.20;;
297;SDS011;133;49.626;9.680;2022-12-29T08:20:36;2.27;;;2.10;;
297;SDS011;133;49.626;9.680;2022-12-29T08:23:02;2.60;;;2.40;;
297;SDS011;133;49.626;9.680;2022-12-29T08:25:28;2.60;;;2.40;;
297;SDS011;133;49.626;9.680;2022-12-29T08:27:53;2.80;;;2.60;;
297;SDS011;133;49.626;9.680;2022-12-29T08:30:19;2.40;;;2.23;;
297;SDS011;133;49.626;9.680;2022-12-29T08:32:44;2.50;;;2.30;;
297;SDS011;133;49.626;9.680;2022-12-29T08:35:10;3.50;;;2.40;;
297;SDS011;133;49.626;9.680;2022-12-29T08:37:35;3.10;;;2.70;;
297;SDS011;133;49.626;9.680;2022-12-29T08:40:01;2.90;;;2.20;;
297;SDS011;133;49.626;9.680;2022-12-29T08:42:29;2.73;;;2.30;;
297;SDS011;133;49.626;9.680;2022-12-29T08:44:56;2.50;;;2.40;;
297;SDS011;133;49.626;9.680;2022-12-29T08:47:22;5.13;;;2.60;;
297;SDS011;133;49.626;9.680;2022-12-29T08:49:48;3.10;;;2.60;;
297;SDS011;133;49.626;9.680;2022-12-29T08:52:13;4.20;;;2.90;;
297;SDS011;133;49.626;9.680;2022-12-29T08:54:39;2.50;;;2.30;;
297;SDS011;133;49.626;9.680;2022-12-29T08:57:04;3.40;;;3.00;;
297;SDS011;133;49.626;9.680;2022-12-29T08:59:30;3.10;;;2.53;;
297;SDS011;133;49.626;9.680;2022-12-29T09:01:55;4.50;;;2.70;;
297;SDS011;133;49.626;9.680;2022-12-29T09:04:21;3.27;;;3.07;;
297;SDS011;133;49.626;9.680;2022-12-29T09:06:48;3.03;;;2.80;;
297;SDS011;133;49.626;9.680;2022-12-29T09:09:14;3.00;;;2.80;;
297;SDS011;133;49.626;9.680;2022-12-29T09:11:40;2.80;;;2.60;;
297;SDS011;133;49.626;9.680;2022-12-29T09:14:06;2.40;;;2.20;;
297;SDS011;133;49.626;9.680;2022-12-29T09:16:32;2.67;;;2.47;;
297;SDS011;133;49.626;9.680;2022-12-29T09:18:58;3.53;;;2.60;;
297;SDS011;133;49.626;9.680;2022-12-29T09:21:24;6.90;;;2.87;;
297;SDS011;133;49.626;9.680;2022-12-29T09:23:49;5.90;;;3.57;;
297;SDS011;133;49.626;9.680;2022-12-29T09:26:15;3.07;;;2.87;;
297;SDS011;133;49.626;9.680;2022-12-29T09:28:41;5.87;;;3.20;;
297;SDS011;133;49.626;9.680;2022-12-29T09:31:07;5.63;;;2.87;;
297;SDS011;133;49.626;9.680;2022-12-29T09:33:32;2.80;;;2.60;;
297;SDS011;133;49.626;9.680;2022-12-29T09:35:59;4.07;;;2.80;;
297;SDS011;133;49.626;9.680;2022-12-29T09:38:25;2.67;;;2.47;;
297;SDS011;133;49.626;9.680;2022-12-29T09:40:53;2.60;;;2.40;;
297;SDS011;133;49.626;9.680;2022-12-29T09:46:11;4.53;;;2.80;;
297;SDS011;133;49.626;9.680;2022-12-29T09:51:53;3.47;;;2.67;;
297;SDS011;133;49.626;9.680;2022-12-29T09:56:59;3.90;;;2.90;;
297;SDS011;133;49.626;9.680;2022-12-29T09:59:41;4.87;;;2.90;;
297;SDS011;133;49.626;9.680;2022-12-29T10:04:40;5.47;;;2.93;;
297;SDS011;133;49.626;9.680;2022-12-29T10:07:22;5.90;;;2.70;;
297;SDS011;133;49.626;9.680;2022-12-29T10:12:32;2.97;;;2.80;;
297;SDS011;133;49.626;9.680;2022-12-29T10:15:33;3.90;;;2.93;;
297;SDS011;133;49.626;9.680;2022-12-29T10:24:03;4.97;;;3.00;;
297;SDS011;133;49.626;9.680;2022-12-29T10:26:35;3.20;;;3.03;;
297;SDS011;133;49.626;9.680;2022-12-29T10:29:04;2.90;;;2.70;;
297;SDS011;133;49.626;9.680;2022-12-29T10:31:36;2.70;;;2.50;;
297;SDS011;133;49.626;9.680;2022-12-29T10:34:06;4.37;;;2.80;;
297;SDS011;133;49.626;9.680;2022-12-29T10:37:03;3.27;;;2.47;;
297;SDS011;133;49.626;9.680;2022-12-29T10:39:41;3.10;;;2.90;;
297;SDS011;133;49.626;9.680;2022-12-29T10:42:13;5.87;;;2.90;;
297;SDS011;133;49.626;9.680;2022-12-29T10:44:47;7.73;;;2.90;;
297;SDS011;133;49.626;9.680;2022-12-29T10:47:18;3.20;;;3.00;;
297;SDS011;133;49.626;9.680;2022-12-29T10:49:48;4.33;;;3.30;;
297;SDS011;133;49.626;9.680;2022-12-29T10:52:15;3.23;;;3.07;;
297;SDS011;133;49.626;9.680;2022-12-29T10:54:55;5.40;;;3.80;;
297;SDS011;133;49.626;9.680;2022-12-29T11:00:15;4.90;;;3.83;;
297;SDS011;133;49.626;9.680;2022-12-29T11:05:25;4.90;;;2.93;;
297;SDS011;133;49.626;9.680;2022-12-29T11:07:57;4.10;;;3.50;;
297;SDS011;133;49.626;9.680;2022-12-29T11:10:30;5.63;;;3.20;;
297;SDS011;133;49.626;9.680;2022-12-29T11:13:00;5.07;;;3.20;;
297;SDS011;133;49.626;9.680;2022-12-29T11:15:37;5.03;;;2.90;;
297;SDS011;133;49.626;9.680;2022-12-29T11:18:05;5.10;;;2.90;;
297;SDS011;133;49.626;9.680;2022-12-29T11:20:41;4.40;;;3.27;;
297;SDS011;133;49.626;9.680;2022-12-29T11:26:05;3.37;;;3.00;;
297;SDS011;133;49.626;9.680;2022-12-29T11:28:42;3.80;;;3.10;;
297;SDS011;133;49.626;9.680;2022-12-29T11:31:15;4.23;;;3.10;;
297;SDS011;133;49.626;9.680;2022-12-29T11:33:42;4.13;;;3.60;;
297;SDS011;133;49.626;9.680;2022-12-29T11:36:13;3.17;;;3.00;;
297;SDS011;133;49.626;9.680;2022-12-29T11:38:45;4.60;;;3.00;;
297;SDS011;133;49.626;9.680;2022-12-29T11:41:18;3.87;;;2.93;;
297;SDS011;133;49.626;9.680;2022-12-29T11:43:46;7.97;;;3.30;;
297;SDS011;133;49.626;9.680;2022-12-29T11:46:31;3.50;;;3.10;;
297;SDS011;133;49.626;9.680;2022-12-29T11:48:59;4.37;;;2.87;;
297;SDS011;133;49.626;9.680;2022-12-29T11:51:30;4.30;;;3.30;;
297;SDS011;133;49.626;9.680;2022-12-29T11:54:04;4.33;;;2.67;;
297;SDS011;133;49.626;9.680;2022-12-29T11:56:35;2.70;;;2.50;;
297;SDS011;133;49.626;9.680;2022-12-29T12:02:13;3.70;;;2.43;;
297;SDS011;133;49.626;9.680;2022-12-29T12:04:47;2.87;;;2.70;;
297;SDS011;133;49.626;9.680;2022-12-29T12:10:16;2.80;;;2.40;;
297;SDS011;133;49.626;9.680;2022-12-29T12:12:55;2.63;;;2.47;;
297;SDS011;133;49.626;9.680;2022-12-29T12:15:29;2.97;;;2.77;;
297;SDS011;133;49.626;9.680;2022-12-29T12:18:08;3.03;;;2.57;;
297;SDS011;133;49.626;9.680;2022-12-29T12:21:38;3.40;;;2.83;;
297;SDS011;133;49.626;9.680;2022-12-29T12:24:33;4.60;;;2.20;;
297;SDS011;133;49.626;9.680;2022-12-29T12:27:08;3.33;;;2.80;;
297;SDS011;133;49.626;9.680;2022-12-29T12:35:13;2.50;;;2.30;;
297;SDS011;133;49.626;9.680;2022-12-29T12:37:48;3.20;;;2.60;;
297;SDS011;133;49.626;9.680;2022-12-29T12:40:46;4.83;;;2.60;;
297;SDS011;133;49.626;9.680;2022-12-29T13:00:01;4.57;;;2.63;;
297;SDS011;133;49.626;9.680;2022-12-29T13:02:57;3.93;;;2.67;;
297;SDS011;133;49.626;9.680;2022-12-29T13:10:50;3.33;;;2.80;;
297;SDS011;133;49.626;9.680;2022-12-29T13:22:32;5.00;;;1.77;;
297;SDS011;133;49.626;9.680;2022-12-29T13:25:27;2.07;;;1.90;;
297;SDS011;133;49.626;9.680;2022-12-29T13:36:22;2.60;;;2.23;;
297;SDS011;133;49.626;9.680;2022-12-29T13:41:48;2.60;;;2.10;;
297;SDS011;133;49.626;9.680;2022-12-29T13:44:17;2.17;;;2.00;;
297;SDS011;133;49.626;9.680;2022-12-29T13:46:49;4.50;;;2.10;;
297;SDS011;133;49.626;9.680;2022-12-29T13:49:18;2.07;;;1.93;;
297;SDS011;133;49.626;9.680;2022-12-29T13:51:49;2.40;;;2.20;;
297;SDS011;133;49.626;9.680;2022-12-29T13:54:37;5.30;;;2.30;;
297;SDS011;133;49.626;9.680;2022-12-29T14:00:23;2.43;;;2.17;;
297;SDS011;133;49.626;9.680;2022-12-29T14:03:16;2.40;;;2.20;;
297;SDS011;133;49.626;9.680;2022-12-29T14:06:20;3.07;;;2.10;;
297;SDS011;133;49.626;9.680;2022-12-29T14:08:47;6.43;;;3.10;;
297;SDS011;133;49.626;9.680;2022-12-29T14:11:15;2.87;;;2.67;;
297;SDS011;133;49.626;9.680;2022-12-29T14:13:43;4.10;;;2.43;;
297;SDS011;133;49.626;9.680;2022-12-29T14:16:22;2.00;;;1.90;;
297;SDS011;133;49.626;9.680;2022-12-29T14:18:51;3.63;;;1.90;;
297;SDS011;133;49.626;9.680;2022-12-29T14:21:20;4.00;;;2.40;;
297;SDS011;133;49.626;9.680;2022-12-29T14:23:49;2.53;;;2.20;;
297;SDS011;133;49.626;9.680;2022-12-29T14:28:53;2.00;;;1.90;;
297;SDS011;133;49.626;9.680;2022-12-29T14:39:02;2.70;;;2.00;;
297;SDS011;133;49.626;9.680;2022-12-29T14:41:40;2.57;;;2.13;;
297;SDS011;133;49.626;9.680;2022-12-29T14:46:45;3.13;;;1.80;;
297;SDS011;133;49.626;9.680;2022-12-29T14:49:27;3.30;;;2.00;;
297;SDS011;133;49.626;9.680;2022-12-29T14:54:47;2.00;;;1.90;;
297;SDS011;133;49.626;9.680;2022-12-29T14:57:37;3.50;;;2.10;;
297;SDS011;133;49.626;9.680;2022-12-29T15:00:06;2.20;;;2.00;;
297;SDS011;133;49.626;9.680;2022-12-29T15:02:40;2.30;;;2.10;;
297;SDS011;133;49.626;9.680;2022-12-29T15:08:05;2.67;;;2.27;;
297;SDS011;133;49.626;9.680;2022-12-29T15:10:34;2.90;;;2.70;;
297;SDS011;133;49.626;9.680;2022-12-29T15:13:13;2.40;;;2.27;;
297;SDS011;133;49.626;9.680;2022-12-29T15:15:56;6.27;;;4.47;;
297;SDS011;133;49.626;9.680;2022-12-29T15:18:29;3.63;;;2.97;;
297;SDS011;133;49.626;9.680;2022-12-29T15:21:03;3.90;;;3.20;;
297;SDS011;133;49.626;9.680;2022-12-29T15:23:31;4.23;;;3.07;;
297;SDS011;133;49.626;9.680;2022-12-29T15:28:39;1.93;;;1.83;;
297;SDS011;133;49.626;9.680;2022-12-29T15:31:11;2.90;;;2.33;;
297;SDS011;133;49.626;9.680;2022-12-29T15:33:39;6.23;;;2.57;;
297;SDS011;133;49.626;9.680;2022-12-29T15:36:13;4.57;;;2.83;;
297;SDS011;133;49.626;9.680;2022-12-29T15:38:44;4.90;;;2.83;;
297;SDS011;133;49.626;9.680;2022-12-29T15:41:53;4.40;;;3.20;;
297;SDS011;133;49.626;9.680;2022-12-29T15:44:23;5.03;;;3.93;;
297;SDS011;133;49.626;9.680;2022-12-29T15:47:25;4.33;;;3.50;;
297;SDS011;133;49.626;9.680;2022-12-29T15:49:55;6.93;;;5.63;;
297;SDS011;133;49.626;9.680;2022-12-29T15:52:31;14.83;;;7.00;;
297;SDS011;133;49.626;9.680;2022-12-29T15:54:58;5.90;;;5.00;;
297;SDS011;133;49.626;9.680;2022-12-29T15:59:52;5.07;;;4.10;;
297;SDS011;133;49.626;9.680;2022-12-29T16:02:19;11.73;;;8.07;;
297;SDS011;133;49.626;9.680;2022-12-29T16:04:46;7.57;;;5.47;;
297;SDS011;133;49.626;9.680;2022-12-29T16:07:24;6.07;;;5.00;;
297;SDS011;133;49.626;9.680;2022-12-29T16:09:55;9.63;;;6.17;;
297;SDS011;133;49.626;9.680;2022-12-29T16:12:24;18.40;;;11.07;;
297;SDS011;133;49.626;9.680;2022-12-29T16:15:01;4.87;;;4.17;;
297;SDS011;133;49.626;9.680;2022-12-29T16:17:37;5.57;;;5.23;;
297;SDS011;133;49.626;9.680;2022-12-29T16:20:36;7.10;;;6.00;;
297;SDS011;133;49.626;9.680;2022-12-29T16:23:05;3.00;;;2.60;;
297;SDS011;133;49.626;9.680;2022-12-29T16:25:41;1.97;;;1.77;;
297;SDS011;133;49.626;9.680;2022-12-29T16:28:30;3.37;;;1.70;;
297;SDS011;133;49.626;9.680;2022-12-29T16:31:47;2.10;;;1.60;;
297;SDS011;133;49.626;9.680;2022-12-29T16:34:13;1.90;;;1.80;;
297;SDS011;133;49.626;9.680;2022-12-29T16:36:54;2.30;;;2.13;;
297;SDS011;133;49.626;9.680;2022-12-29T16:39:28;2.00;;;1.90;;
297;SDS011;133;49.626;9.680;2022-12-29T16:41:59;1.93;;;1.70;;
297;SDS011;133;49.626;9.680;2022-12-29T16:47:43;2.50;;;1.87;;
297;SDS011;133;49.626;9.680;2022-12-29T16:50:11;2.00;;;1.90;;
297;SDS011;133;49.626;9.680;2022-12-29T16:52:41;2.33;;;1.93;;
297;SDS011;133;49.626;9.680;2022-12-29T16:55:15;2.30;;;2.10;;
297;SDS011;133;49.626;9.680;2022-12-29T16:57:43;3.17;;;1.90;;
297;SDS011;133;49.626;9.680;2022-12-29T17:00:17;1.90;;;1.80;;
297;SDS011;133;49.626;9.680;2022-12-29T17:02:48;3.80;;;2.47;;
297;SDS011;133;49.626;9.680;2022-12-29T17:05:16;1.87;;;1.77;;
297;SDS011;133;49.626;9.680;2022-12-29T17:07:43;2.20;;;2.00;;
297;SDS011;133;49.626;9.680;2022-12-29T17:10:09;2.50;;;2.20;;
297;SDS011;133;49.626;9.680;2022-12-29T17:12:37;2.53;;;1.93;;
297;SDS011;133;49.626;9.680;2022-12-29T17:15:04;2.30;;;2.10;;
297;SDS011;133;49.626;9.680;2022-12-29T17:17:45;4.40;;;1.90;;
297;SDS011;133;49.626;9.680;2022-12-29T17:20:17;3.83;;;2.00;;
297;SDS011;133;49.626;9.680;2022-12-29T17:22:45;1.93;;;1.83;;
297;SDS011;133;49.626;9.680;2022-12-29T17:25:12;4.03;;;2.50;;
297;SDS011;133;49.626;9.680;2022-12-29T17:27:59;2.27;;;2.07;;
297;SDS011;133;49.626;9.680;2022-12-29T17:30:27;3.23;;;3.03;;
297;SDS011;133;49.626;9.680;2022-12-29T17:33:09;5.50;;;2.90;;
297;SDS011;133;49.626;9.680;2022-12-29T17:35:38;7.60;;;5.37;;
297;SDS011;133;49.626;9.680;2022-12-29T17:40:47;12.53;;;7.10;;
297;SDS011;133;49.626;9.680;2022-12-29T17:43:14;4.37;;;3.53;;
297;SDS011;133;49.626;9.680;2022-12-29T17:45:41;3.57;;;3.30;;
297;SDS011;133;49.626;9.680;2022-12-29T17:48:14;4.30;;;2.80;;
297;SDS011;133;49.626;9.680;2022-12-29T17:50:41;3.03;;;2.27;;
297;SDS011;133;49.626;9.680;2022-12-29T17:53:11;4.30;;;2.40;;
297;SDS011;133;49.626;9.680;2022-12-29T17:55:39;5.90;;;2.77;;
297;SDS011;133;49.626;9.680;2022-12-29T17:58:15;2.47;;;2.27;;
297;SDS011;133;49.626;9.680;2022-12-29T18:00:41;3.40;;;2.50;;
297;SDS011;133;49.626;9.680;2022-12-29T18:03:14;4.07;;;2.60;;
297;SDS011;133;49.626;9.680;2022-12-29T18:05:41;3.13;;;2.13;;
297;SDS011;133;49.626;9.680;2022-12-29T18:08:08;2.40;;;2.20;;
297;SDS011;133;49.626;9.680;2022-12-29T18:10:35;2.70;;;2.53;;
297;SDS011;133;49.626;9.680;2022-12-29T18:13:01;2.60;;;2.47;;
297;SDS011;133;49.626;9.680;2022-12-29T18:15:31;3.80;;;2.50;;
297;SDS011;133;49.626;9.680;2022-12-29T18:20:33;3.03;;;2.83;;
297;SDS011;133;49.626;9.680;2022-12-29T18:22:58;2.40;;;2.20;;
297;SDS011;133;49.626;9.680;2022-12-29T18:25:38;3.17;;;2.97;;
297;SDS011;133;49.626;9.680;2022-12-29T18:28:07;4.90;;;3.40;;
297;SDS011;133;49.626;9.680;2022-12-29T18:30:34;3.20;;;3.00;;
297;SDS011;133;49.626;9.680;2022-12-29T18:33:00;3.00;;;2.83;;
297;SDS011;133;49.626;9.680;2022-12-29T18:35:27;4.10;;;3.90;;
297;SDS011;133;49.626;9.680;2022-12-29T18:38:00;5.30;;;3.40;;
297;SDS011;133;49.626;9.680;2022-12-29T18:40:26;5.83;;;3.60;;